sensor_id;sensor_type;location;lat;lon;timestamp;pressure;altitude;pressure_sealevel;temperature;humidity
12077;BME280;12420;42.676;23.262;2023-06-14T00:00:45;94334.53;;;19.34;100.00
12077;BME280;12420;42.676;23.262;2023-06-14T00:03:14;94294.25;;;19.10;100.00
12077;BME280;12420;42.676;23.262;2023-06-14T00:05:43;94321.38;;;19.37;100.00
12077;BME280;12420;42.676;23.262;2023-06-14T00:08:13;94318.44;;;19.35;100.00
12077;BME280;12420;42.676;23.262;2023-06-14T00:10:40;94309.72;;;19.30;100.00
12077;BME280;12420;42.676;23.262;2023-06-14T00:13:07;94301.91;;;19.29;100.00
12077;BME280;12420;42.676;23.262;2023-06-14T00:15:34;94223.28;;;18.69;100.00
12077;BME280;12420;42.676;23.262;2023-06-14T00:18:02;94314.59;;;19.30;100.00
12077;BME280;12420;42.676;23.262;2023-06-14T00:20:30;94308.56;;;19.24;100.00
12077;BME280;12420;42.676;23.262;2023-06-14T00:22:58;94231.84;;;18.71;100.00
12077;BME280;12420;42.676;23.262;2023-06-14T00:25:27;94302.34;;;19.16;100.00
12077;BME280;12420;42.676;23.262;2023-06-14T00:27:55;94247.47;;;18.74;100.00
12077;BME280;12420;42.676;23.262;2023-06-14T00:30:22;94314.00;;;19.32;100.00
12077;BME280;12420;42.676;23.262;2023-06-14T00:32:49;94327.44;;;19.33;100.00
12077;BME280;12420;42.676;23.262;2023-06-14T00:35:16;94253.09;;;18.93;100.00
12077;BME280;12420;42.676;23.262;2023-06-14T00:37:43;94283.19;;;19.02;100.00
12077;BME280;12420;42.676;23.262;2023-06-14T00:40:10;94300.88;;;19.34;100.00
12077;BME280;12420;42.676;23.262;2023-06-14T00:42:38;94305.28;;;19.37;100.00
12077;BME280;12420;42.676;23.262;2023-06-14T00:45:06;94249.69;;;19.04;100.00
12077;BME280;12420;42.676;23.262;2023-06-14T00:47:33;94298.63;;;19.42;100.00
12077;BME280;12420;42.676;23.262;2023-06-14T00:50:01;94283.28;;;19.34;100.00
12077;BME280;12420;42.676;23.262;2023-06-14T00:52:28;94302.59;;;19.49;100.00
12077;BME280;12420;42.676;23.262;2023-06-14T00:54:57;94294.91;;;19.49;100.00
12077;BME280;12420;42.676;23.262;2023-06-14T00:57:24;94297.72;;;19.49;100.00
12077;BME280;12420;42.676;23.262;2023-06-14T00:59:53;94291.81;;;19.45;100.00
12077;BME280;12420;42.676;23.262;2023-06-14T01:02:21;94263.81;;;19.26;100.00
12077;BME280;12420;42.676;23.262;2023-06-14T01:04:48;94289.00;;;19.45;100.00
12077;BME280;12420;42.676;23.262;2023-06-14T01:07:24;94275.31;;;19.30;100.00
12077;BME280;12420;42.676;23.262;2023-06-14T01:10:02;94292.88;;;19.40;100.00
12077;BME280;12420;42.676;23.262;2023-06-14T01:12:37;94291.41;;;19.39;100.00
12077;BME280;12420;42.676;23.262;2023-06-14T01:15:08;94291.25;;;19.37;100.00
12077;BME280;12420;42.676;23.262;2023-06-14T01:17:36;94275.16;;;19.28;100.00
12077;BME280;12420;42.676;23.262;2023-06-14T01:20:10;94267.81;;;19.13;100.00
12077;BME280;12420;42.676;23.262;2023-06-14T01:22:50;94259.56;;;19.05;100.00
12077;BME280;12420;42.676;23.262;2023-06-14T01:25:17;94295.41;;;19.26;100.00
12077;BME280;12420;42.676;23.262;2023-06-14T01:27:47;94277.84;;;19.26;100.00
12077;BME280;12420;42.676;23.262;2023-06-14T01:30:16;94284.19;;;19.26;100.00
12077;BME280;12420;42.676;23.262;2023-06-14T01:32:43;94264.13;;;19.11;100.00
12077;BME280;12420;42.676;23.262;2023-06-14T01:35:11;94284.94;;;19.27;100.00
12077;BME280;12420;42.676;23.262;2023-06-14T01:37:39;94228.91;;;18.78;100.00
12077;BME280;12420;42.676;23.262;2023-06-14T01:40:09;94294.69;;;19.26;100.00
12077;BME280;12420;42.676;23.262;2023-06-14T01:42:38;94286.13;;;19.24;100.00
12077;BME280;12420;42.676;23.262;2023-06-14T01:45:06;94291.00;;;19.23;100.00
12077;BME280;12420;42.676;23.262;2023-06-14T01:47:33;94298.06;;;19.24;100.00
12077;BME280;12420;42.676;23.262;2023-06-14T01:50:02;94287.28;;;19.21;100.00
12077;BME280;12420;42.676;23.262;2023-06-14T01:52:29;94283.75;;;19.20;100.00
12077;BME280;12420;42.676;23.262;2023-06-14T01:54:57;94294.69;;;19.16;100.00
12077;BME280;12420;42.676;23.262;2023-06-14T01:57:25;94289.72;;;18.76;100.00
12077;BME280;12420;42.676;23.262;2023-06-14T01:59:54;94299.44;;;18.84;100.00
12077;BME280;12420;42.676;23.262;2023-06-14T02:02:20;94292.78;;;18.70;100.00
12077;BME280;12420;42.676;23.262;2023-06-14T02:04:47;94297.66;;;18.60;100.00
12077;BME280;12420;42.676;23.262;2023-06-14T02:07:15;94297.03;;;18.42;100.00
12077;BME280;12420;42.676;23.262;2023-06-14T02:09:41;94300.09;;;18.27;100.00
12077;BME280;12420;42.676;23.262;2023-06-14T02:12:09;94304.31;;;18.08;100.00
12077;BME280;12420;42.676;23.262;2023-06-14T02:14:38;94300.16;;;17.90;100.00
12077;BME280;12420;42.676;23.262;2023-06-14T02:17:08;94304.56;;;17.93;100.00
12077;BME280;12420;42.676;23.262;2023-06-14T02:19:35;94304.53;;;17.83;100.00
12077;BME280;12420;42.676;23.262;2023-06-14T02:22:02;94290.75;;;17.68;100.00
12077;BME280;12420;42.676;23.262;2023-06-14T02:24:30;94298.56;;;17.69;100.00
12077;BME280;12420;42.676;23.262;2023-06-14T02:26:57;94215.13;;;17.11;100.00
12077;BME280;12420;42.676;23.262;2023-06-14T02:29:25;94331.69;;;17.63;100.00
12077;BME280;12420;42.676;23.262;2023-06-14T02:31:53;94318.97;;;17.79;100.00
12077;BME280;12420;42.676;23.262;2023-06-14T02:34:20;94314.69;;;17.78;100.00
12077;BME280;12420;42.676;23.262;2023-06-14T02:36:47;94317.63;;;17.81;100.00
12077;BME280;12420;42.676;23.262;2023-06-14T02:39:15;94305.19;;;17.64;100.00
12077;BME280;12420;42.676;23.262;2023-06-14T02:41:47;94298.75;;;17.44;100.00
12077;BME280;12420;42.676;23.262;2023-06-14T02:44:14;94297.63;;;17.30;100.00
12077;BME280;12420;42.676;23.262;2023-06-14T02:46:42;94319.22;;;17.47;100.00
12077;BME280;12420;42.676;23.262;2023-06-14T02:49:12;94306.72;;;17.48;100.00
12077;BME280;12420;42.676;23.262;2023-06-14T02:51:40;94263.59;;;17.24;100.00
12077;BME280;12420;42.676;23.262;2023-06-14T02:54:07;94232.16;;;17.06;100.00
12077;BME280;12420;42.676;23.262;2023-06-14T02:56:34;94305.91;;;17.65;100.00
12077;BME280;12420;42.676;23.262;2023-06-14T02:59:01;94296.22;;;17.66;100.00
12077;BME280;12420;42.676;23.262;2023-06-14T03:01:28;94285.25;;;17.60;100.00
12077;BME280;12420;42.676;23.262;2023-06-14T03:04:00;94255.31;;;17.43;100.00
12077;BME280;12420;42.676;23.262;2023-06-14T03:06:30;94249.72;;;17.16;100.00
12077;BME280;12420;42.676;23.262;2023-06-14T03:08:57;94283.03;;;17.49;100.00
12077;BME280;12420;42.676;23.262;2023-06-14T03:11:26;94323.16;;;17.98;100.00
12077;BME280;12420;42.676;23.262;2023-06-14T03:13:54;94318.72;;;17.95;100.00
12077;BME280;12420;42.676;23.262;2023-06-14T03:16:22;94338.22;;;18.03;100.00
12077;BME280;12420;42.676;23.262;2023-06-14T03:18:49;94319.47;;;17.95;100.00
12077;BME280;12420;42.676;23.262;2023-06-14T03:21:16;94338.66;;;18.09;100.00
12077;BME280;12420;42.676;23.262;2023-06-14T03:23:44;94329.38;;;18.06;100.00
12077;BME280;12420;42.676;23.262;2023-06-14T03:26:11;94334.72;;;18.12;100.00
12077;BME280;12420;42.676;23.262;2023-06-14T03:28:40;94254.59;;;17.52;100.00
12077;BME280;12420;42.676;23.262;2023-06-14T03:31:08;94281.34;;;17.36;100.00
12077;BME280;12420;42.676;23.262;2023-06-14T03:33:35;94337.88;;;17.89;100.00
12077;BME280;12420;42.676;23.262;2023-06-14T03:36:02;94338.19;;;17.93;100.00
12077;BME280;12420;42.676;23.262;2023-06-14T03:38:30;94323.25;;;17.81;100.00
12077;BME280;12420;42.676;23.262;2023-06-14T03:40:59;94337.31;;;18.00;100.00
12077;BME280;12420;42.676;23.262;2023-06-14T03:43:26;94336.16;;;18.03;100.00
12077;BME280;12420;42.676;23.262;2023-06-14T03:45:52;94342.16;;;17.90;100.00
12077;BME280;12420;42.676;23.262;2023-06-14T03:48:19;94306.75;;;17.85;100.00
12077;BME280;12420;42.676;23.262;2023-06-14T03:50:46;94317.84;;;17.92;100.00
12077;BME280;12420;42.676;23.262;2023-06-14T03:53:13;94243.47;;;17.35;100.00
12077;BME280;12420;42.676;23.262;2023-06-14T03:55:40;94345.03;;;18.09;100.00
12077;BME280;12420;42.676;23.262;2023-06-14T03:58:08;94344.81;;;17.97;100.00
12077;BME280;12420;42.676;23.262;2023-06-14T04:00:35;94338.56;;;17.79;100.00
12077;BME280;12420;42.676;23.262;2023-06-14T04:03:02;94334.63;;;17.65;100.00
12077;BME280;12420;42.676;23.262;2023-06-14T04:05:31;94329.75;;;17.56;100.00
12077;BME280;12420;42.676;23.262;2023-06-14T04:07:58;94348.75;;;17.85;100.00
12077;BME280;12420;42.676;23.262;2023-06-14T04:10:26;94346.91;;;17.97;100.00
12077;BME280;12420;42.676;23.262;2023-06-14T04:12:53;94342.63;;;18.06;100.00
12077;BME280;12420;42.676;23.262;2023-06-14T04:15:22;94308.31;;;17.68;100.00
12077;BME280;12420;42.676;23.262;2023-06-14T04:17:49;94278.44;;;17.81;100.00
12077;BME280;12420;42.676;23.262;2023-06-14T04:20:16;94305.81;;;18.09;100.00
12077;BME280;12420;42.676;23.262;2023-06-14T04:22:43;94301.72;;;18.20;100.00
12077;BME280;12420;42.676;23.262;2023-06-14T04:25:10;94336.00;;;18.57;100.00
12077;BME280;12420;42.676;23.262;2023-06-14T04:27:37;94338.53;;;18.73;100.00
12077;BME280;12420;42.676;23.262;2023-06-14T04:30:06;94345.88;;;18.68;100.00
12077;BME280;12420;42.676;23.262;2023-06-14T04:32:35;94340.75;;;18.84;100.00
12077;BME280;12420;42.676;23.262;2023-06-14T04:35:06;94281.88;;;18.55;100.00
12077;BME280;12420;42.676;23.262;2023-06-14T04:37:33;94348.16;;;19.08;100.00
12077;BME280;12420;42.676;23.262;2023-06-14T04:40:00;94352.28;;;19.17;100.00
12077;BME280;12420;42.676;23.262;2023-06-14T04:42:30;94342.22;;;19.24;100.00
12077;BME280;12420;42.676;23.262;2023-06-14T04:44:57;94349.44;;;19.46;100.00
12077;BME280;12420;42.676;23.262;2023-06-14T04:47:24;94354.28;;;19.56;100.00
12077;BME280;12420;42.676;23.262;2023-06-14T04:49:57;94356.09;;;19.02;100.00
12077;BME280;12420;42.676;23.262;2023-06-14T04:52:25;94356.09;;;19.22;100.00
12077;BME280;12420;42.676;23.262;2023-06-14T04:54:55;94349.47;;;19.27;100.00
12077;BME280;12420;42.676;23.262;2023-06-14T04:57:22;94369.34;;;19.50;100.00
12077;BME280;12420;42.676;23.262;2023-06-14T04:59:51;94369.22;;;19.68;100.00
12077;BME280;12420;42.676;23.262;2023-06-14T05:02:20;94378.03;;;19.84;100.00
12077;BME280;12420;42.676;23.262;2023-06-14T05:04:48;94371.53;;;19.81;100.00
12077;BME280;12420;42.676;23.262;2023-06-14T05:07:17;94375.25;;;19.74;100.00
12077;BME280;12420;42.676;23.262;2023-06-14T05:09:44;94384.97;;;19.92;100.00
12077;BME280;12420;42.676;23.262;2023-06-14T05:12:11;94382.28;;;19.94;100.00
12077;BME280;12420;42.676;23.262;2023-06-14T05:14:38;94365.34;;;19.73;100.00
12077;BME280;12420;42.676;23.262;2023-06-14T05:17:06;94311.22;;;19.22;100.00
12077;BME280;12420;42.676;23.262;2023-06-14T05:19:33;94318.84;;;19.50;100.00
12077;BME280;12420;42.676;23.262;2023-06-14T05:22:00;94320.75;;;19.48;100.00
12077;BME280;12420;42.676;23.262;2023-06-14T05:24:30;94353.22;;;19.80;100.00
12077;BME280;12420;42.676;23.262;2023-06-14T05:26:57;94330.59;;;19.78;100.00
12077;BME280;12420;42.676;23.262;2023-06-14T05:29:27;94435.44;;;20.53;100.00
12077;BME280;12420;42.676;23.262;2023-06-14T05:31:54;94416.38;;;20.61;100.00
12077;BME280;12420;42.676;23.262;2023-06-14T05:34:21;94425.00;;;20.44;100.00
12077;BME280;12420;42.676;23.262;2023-06-14T05:36:48;94354.41;;;20.18;100.00
12077;BME280;12420;42.676;23.262;2023-06-14T05:39:15;94375.22;;;20.25;100.00
12077;BME280;12420;42.676;23.262;2023-06-14T05:41:44;94334.59;;;19.85;100.00
12077;BME280;12420;42.676;23.262;2023-06-14T05:44:13;94313.22;;;19.50;100.00
12077;BME280;12420;42.676;23.262;2023-06-14T05:46:41;94429.91;;;20.33;100.00
12077;BME280;12420;42.676;23.262;2023-06-14T05:49:08;94419.50;;;20.05;100.00
12077;BME280;12420;42.676;23.262;2023-06-14T05:51:34;94386.78;;;19.78;100.00
12077;BME280;12420;42.676;23.262;2023-06-14T05:54:01;94382.19;;;19.73;100.00
12077;BME280;12420;42.676;23.262;2023-06-14T05:56:29;94362.69;;;19.75;100.00
12077;BME280;12420;42.676;23.262;2023-06-14T05:58:58;94414.94;;;20.00;100.00
12077;BME280;12420;42.676;23.262;2023-06-14T06:01:25;94318.44;;;19.35;100.00
12077;BME280;12420;42.676;23.262;2023-06-14T06:03:52;94317.69;;;19.34;100.00
12077;BME280;12420;42.676;23.262;2023-06-14T06:06:19;94365.81;;;19.60;100.00
12077;BME280;12420;42.676;23.262;2023-06-14T06:08:45;94421.13;;;20.08;100.00
12077;BME280;12420;42.676;23.262;2023-06-14T06:11:12;94447.59;;;20.05;100.00
12077;BME280;12420;42.676;23.262;2023-06-14T06:13:40;94387.41;;;19.47;100.00
12077;BME280;12420;42.676;23.262;2023-06-14T06:16:08;94426.38;;;19.82;100.00
12077;BME280;12420;42.676;23.262;2023-06-14T06:18:35;94386.19;;;19.50;100.00
12077;BME280;12420;42.676;23.262;2023-06-14T06:21:03;94311.38;;;18.85;100.00
12077;BME280;12420;42.676;23.262;2023-06-14T06:23:31;94427.13;;;19.44;100.00
12077;BME280;12420;42.676;23.262;2023-06-14T06:25:58;94382.50;;;18.80;100.00
12077;BME280;12420;42.676;23.262;2023-06-14T06:28:24;94420.31;;;19.08;100.00
12077;BME280;12420;42.676;23.262;2023-06-14T06:30:51;94360.97;;;18.92;100.00
12077;BME280;12420;42.676;23.262;2023-06-14T06:33:20;94349.63;;;18.80;100.00
12077;BME280;12420;42.676;23.262;2023-06-14T06:35:47;94430.09;;;19.36;100.00
12077;BME280;12420;42.676;23.262;2023-06-14T06:38:14;94389.34;;;19.06;100.00
12077;BME280;12420;42.676;23.262;2023-06-14T06:40:41;94361.88;;;18.95;100.00
12077;BME280;12420;42.676;23.262;2023-06-14T06:43:08;94386.09;;;19.29;100.00
12077;BME280;12420;42.676;23.262;2023-06-14T06:45:38;94432.88;;;19.75;100.00
12077;BME280;12420;42.676;23.262;2023-06-14T06:48:06;94379.72;;;19.38;100.00
12077;BME280;12420;42.676;23.262;2023-06-14T06:50:36;94413.22;;;19.65;100.00
12077;BME280;12420;42.676;23.262;2023-06-14T06:53:03;94433.75;;;19.87;100.00
12077;BME280;12420;42.676;23.262;2023-06-14T06:55:30;94418.59;;;20.12;100.00
12077;BME280;12420;42.676;23.262;2023-06-14T06:57:57;94360.44;;;19.83;100.00
12077;BME280;12420;42.676;23.262;2023-06-14T07:00:25;94445.38;;;20.54;100.00
12077;BME280;12420;42.676;23.262;2023-06-14T07:02:52;94397.63;;;20.44;100.00
12077;BME280;12420;42.676;23.262;2023-06-14T07:05:20;94469.44;;;20.98;100.00
12077;BME280;12420;42.676;23.262;2023-06-14T07:07:48;94434.78;;;20.74;100.00
12077;BME280;12420;42.676;23.262;2023-06-14T07:10:15;94429.22;;;20.86;100.00
12077;BME280;12420;42.676;23.262;2023-06-14T07:12:42;94370.38;;;20.47;100.00
12077;BME280;12420;42.676;23.262;2023-06-14T07:15:10;94428.91;;;21.13;100.00
12077;BME280;12420;42.676;23.262;2023-06-14T07:17:36;94438.63;;;21.21;100.00
12077;BME280;12420;42.676;23.262;2023-06-14T07:20:05;94440.91;;;21.35;100.00
12077;BME280;12420;42.676;23.262;2023-06-14T07:22:39;94382.63;;;21.04;100.00
12077;BME280;12420;42.676;23.262;2023-06-14T07:25:10;94362.50;;;20.55;100.00
12077;BME280;12420;42.676;23.262;2023-06-14T07:27:40;94439.09;;;21.39;100.00
12077;BME280;12420;42.676;23.262;2023-06-14T07:30:08;94436.00;;;21.57;100.00
12077;BME280;12420;42.676;23.262;2023-06-14T07:32:36;94425.38;;;21.55;100.00
12077;BME280;12420;42.676;23.262;2023-06-14T07:35:03;94449.06;;;21.74;100.00
12077;BME280;12420;42.676;23.262;2023-06-14T07:37:30;94441.47;;;21.76;100.00
12077;BME280;12420;42.676;23.262;2023-06-14T07:39:57;94425.38;;;21.67;100.00
12077;BME280;12420;42.676;23.262;2023-06-14T07:42:25;94437.53;;;21.70;100.00
12077;BME280;12420;42.676;23.262;2023-06-14T07:44:52;94421.63;;;21.74;100.00
12077;BME280;12420;42.676;23.262;2023-06-14T07:47:19;94440.75;;;21.76;100.00
12077;BME280;12420;42.676;23.262;2023-06-14T07:49:47;94436.06;;;21.68;100.00
12077;BME280;12420;42.676;23.262;2023-06-14T07:52:14;94439.03;;;21.82;100.00
12077;BME280;12420;42.676;23.262;2023-06-14T07:54:41;94374.94;;;21.38;100.00
12077;BME280;12420;42.676;23.262;2023-06-14T07:57:08;94440.53;;;21.95;100.00
12077;BME280;12420;42.676;23.262;2023-06-14T07:59:37;94445.47;;;22.06;100.00
12077;BME280;12420;42.676;23.262;2023-06-14T08:02:04;94470.09;;;22.39;100.00
12077;BME280;12420;42.676;23.262;2023-06-14T08:04:33;94426.13;;;22.13;100.00
12077;BME280;12420;42.676;23.262;2023-06-14T08:07:01;94474.09;;;22.36;100.00
12077;BME280;12420;42.676;23.262;2023-06-14T08:09:31;94419.66;;;21.77;100.00
12077;BME280;12420;42.676;23.262;2023-06-14T08:11:58;94448.38;;;21.97;100.00
12077;BME280;12420;42.676;23.262;2023-06-14T08:14:25;94462.84;;;21.91;100.00
12077;BME280;12420;42.676;23.262;2023-06-14T08:17:04;94501.81;;;22.28;100.00
12077;BME280;12420;42.676;23.262;2023-06-14T08:19:34;94379.53;;;21.43;100.00
12077;BME280;12420;42.676;23.262;2023-06-14T08:22:02;94449.34;;;21.89;100.00
12077;BME280;12420;42.676;23.262;2023-06-14T08:24:29;94493.09;;;22.24;100.00
12077;BME280;12420;42.676;23.262;2023-06-14T08:26:57;94442.81;;;22.20;100.00
12077;BME280;12420;42.676;23.262;2023-06-14T08:29:26;94464.66;;;22.20;100.00
12077;BME280;12420;42.676;23.262;2023-06-14T08:31:56;94481.69;;;22.33;100.00
12077;BME280;12420;42.676;23.262;2023-06-14T08:34:23;94481.84;;;22.47;100.00
12077;BME280;12420;42.676;23.262;2023-06-14T08:36:50;94466.88;;;22.21;100.00
12077;BME280;12420;42.676;23.262;2023-06-14T08:39:17;94469.06;;;22.23;100.00
12077;BME280;12420;42.676;23.262;2023-06-14T08:41:46;94434.34;;;22.08;100.00
12077;BME280;12420;42.676;23.262;2023-06-14T08:44:13;94467.97;;;22.28;100.00
12077;BME280;12420;42.676;23.262;2023-06-14T08:46:44;94474.47;;;21.97;100.00
12077;BME280;12420;42.676;23.262;2023-06-14T08:49:13;94430.25;;;22.00;100.00
12077;BME280;12420;42.676;23.262;2023-06-14T08:51:42;94471.28;;;22.36;100.00
12077;BME280;12420;42.676;23.262;2023-06-14T08:54:10;94462.94;;;22.26;100.00
12077;BME280;12420;42.676;23.262;2023-06-14T08:56:39;94473.78;;;22.42;100.00
12077;BME280;12420;42.676;23.262;2023-06-14T08:59:09;94468.63;;;22.50;100.00
12077;BME280;12420;42.676;23.262;2023-06-14T09:01:36;94468.97;;;22.56;100.00
12077;BME280;12420;42.676;23.262;2023-06-14T09:04:09;94405.28;;;22.18;100.00
12077;BME280;12420;42.676;23.262;2023-06-14T09:06:38;94467.53;;;22.90;100.00
12077;BME280;12420;42.676;23.262;2023-06-14T09:09:06;94460.66;;;23.05;100.00
12077;BME280;12420;42.676;23.262;2023-06-14T09:11:37;94464.09;;;23.04;100.00
12077;BME280;12420;42.676;23.262;2023-06-14T09:14:04;94456.84;;;23.12;100.00
12077;BME280;12420;42.676;23.262;2023-06-14T09:16:32;94452.94;;;23.06;100.00
12077;BME280;12420;42.676;23.262;2023-06-14T09:18:59;94452.03;;;23.15;100.00
12077;BME280;12420;42.676;23.262;2023-06-14T09:21:26;94453.88;;;23.22;100.00
12077;BME280;12420;42.676;23.262;2023-06-14T09:23:54;94453.00;;;23.31;100.00
12077;BME280;12420;42.676;23.262;2023-06-14T09:26:23;94453.94;;;23.48;100.00
12077;BME280;12420;42.676;23.262;2023-06-14T09:28:50;94421.44;;;23.35;100.00
12077;BME280;12420;42.676;23.262;2023-06-14T09:31:18;94458.47;;;23.53;100.00
12077;BME280;12420;42.676;23.262;2023-06-14T09:33:46;94454.28;;;23.54;100.00
12077;BME280;12420;42.676;23.262;2023-06-14T09:36:16;94461.66;;;23.59;100.00
12077;BME280;12420;42.676;23.262;2023-06-14T09:38:51;94401.00;;;23.11;100.00
12077;BME280;12420;42.676;23.262;2023-06-14T09:41:20;94461.84;;;23.63;100.00
12077;BME280;12420;42.676;23.262;2023-06-14T09:43:47;94448.94;;;23.72;100.00
12077;BME280;12420;42.676;23.262;2023-06-14T09:46:15;94454.56;;;23.83;100.00
12077;BME280;12420;42.676;23.262;2023-06-14T09:48:42;94452.41;;;23.96;100.00
12077;BME280;12420;42.676;23.262;2023-06-14T09:51:10;94425.06;;;23.87;100.00
12077;BME280;12420;42.676;23.262;2023-06-14T09:53:40;94440.09;;;24.03;100.00
12077;BME280;12420;42.676;23.262;2023-06-14T09:56:10;94432.50;;;23.94;100.00
12077;BME280;12420;42.676;23.262;2023-06-14T09:58:39;94431.94;;;23.83;100.00
12077;BME280;12420;42.676;23.262;2023-06-14T10:01:08;94429.97;;;23.86;100.00
12077;BME280;12420;42.676;23.262;2023-06-14T10:03:39;94428.53;;;23.99;100.00
12077;BME280;12420;42.676;23.262;2023-06-14T10:06:08;94426.84;;;23.94;100.00
12077;BME280;12420;42.676;23.262;2023-06-14T10:08:36;94428.22;;;23.93;100.00
12077;BME280;12420;42.676;23.262;2023-06-14T10:11:03;94426.19;;;24.07;100.00
12077;BME280;12420;42.676;23.262;2023-06-14T10:13:32;94420.72;;;24.11;100.00
12077;BME280;12420;42.676;23.262;2023-06-14T10:16:09;94413.25;;;23.90;100.00
12077;BME280;12420;42.676;23.262;2023-06-14T10:18:43;94406.56;;;23.72;100.00
12077;BME280;12420;42.676;23.262;2023-06-14T10:21:18;94414.31;;;23.97;100.00
12077;BME280;12420;42.676;23.262;2023-06-14T10:23:48;94405.72;;;23.95;100.00
12077;BME280;12420;42.676;23.262;2023-06-14T10:26:20;94403.03;;;24.11;100.00
12077;BME280;12420;42.676;23.262;2023-06-14T10:28:56;94408.09;;;24.12;100.00
12077;BME280;12420;42.676;23.262;2023-06-14T10:31:39;94395.19;;;23.83;100.00
12077;BME280;12420;42.676;23.262;2023-06-14T10:34:06;94385.94;;;23.95;100.00
12077;BME280;12420;42.676;23.262;2023-06-14T10:36:33;94404.31;;;24.21;100.00
12077;BME280;12420;42.676;23.262;2023-06-14T10:39:04;94379.31;;;23.90;100.00
12077;BME280;12420;42.676;23.262;2023-06-14T10:41:35;94395.66;;;24.31;100.00
12077;BME280;12420;42.676;23.262;2023-06-14T10:44:31;94405.09;;;24.36;100.00
12077;BME280;12420;42.676;23.262;2023-06-14T10:47:00;94380.00;;;24.16;100.00
12077;BME280;12420;42.676;23.262;2023-06-14T10:49:42;94385.16;;;24.20;100.00
12077;BME280;12420;42.676;23.262;2023-06-14T10:52:10;94359.59;;;23.78;100.00
12077;BME280;12420;42.676;23.262;2023-06-14T10:55:02;94356.28;;;23.82;100.00
12077;BME280;12420;42.676;23.262;2023-06-14T10:57:31;94390.56;;;24.02;100.00
12077;BME280;12420;42.676;23.262;2023-06-14T10:59:58;94346.25;;;23.67;100.00
12077;BME280;12420;42.676;23.262;2023-06-14T11:05:41;94370.28;;;24.19;100.00
12077;BME280;12420;42.676;23.262;2023-06-14T11:08:27;94367.69;;;24.37;100.00
12077;BME280;12420;42.676;23.262;2023-06-14T11:11:05;94344.75;;;24.17;100.00
12077;BME280;12420;42.676;23.262;2023-06-14T11:13:32;94351.50;;;23.98;100.00
12077;BME280;12420;42.676;23.262;2023-06-14T11:15:59;94352.13;;;23.97;100.00
12077;BME280;12420;42.676;23.262;2023-06-14T11:18:28;94360.09;;;24.14;100.00
12077;BME280;12420;42.676;23.262;2023-06-14T11:20:55;94336.91;;;23.76;100.00
12077;BME280;12420;42.676;23.262;2023-06-14T11:23:22;94354.06;;;23.80;100.00
12077;BME280;12420;42.676;23.262;2023-06-14T11:25:52;94358.22;;;24.05;100.00
12077;BME280;12420;42.676;23.262;2023-06-14T11:28:19;94364.53;;;24.17;100.00
12077;BME280;12420;42.676;23.262;2023-06-14T11:30:48;94334.66;;;24.14;100.00
12077;BME280;12420;42.676;23.262;2023-06-14T11:33:17;94355.91;;;24.68;85.72
12077;BME280;12420;42.676;23.262;2023-06-14T11:35:45;94351.16;;;24.87;91.64
12077;BME280;12420;42.676;23.262;2023-06-14T11:38:12;94350.56;;;24.61;91.10
12077;BME280;12420;42.676;23.262;2023-06-14T11:40:39;94350.75;;;24.79;90.10
12077;BME280;12420;42.676;23.262;2023-06-14T11:43:06;94303.28;;;24.50;89.64
12077;BME280;12420;42.676;23.262;2023-06-14T11:45:33;94340.78;;;24.91;94.07
12077;BME280;12420;42.676;23.262;2023-06-14T11:48:00;94346.72;;;25.11;91.14
12077;BME280;12420;42.676;23.262;2023-06-14T11:50:28;94342.19;;;25.20;87.11
12077;BME280;12420;42.676;23.262;2023-06-14T11:52:57;94333.09;;;25.22;83.62
12077;BME280;12420;42.676;23.262;2023-06-14T11:55:25;94330.63;;;25.30;87.46
12077;BME280;12420;42.676;23.262;2023-06-14T11:57:54;94314.72;;;25.09;85.62
12077;BME280;12420;42.676;23.262;2023-06-14T12:00:24;94325.50;;;25.12;85.84
12077;BME280;12420;42.676;23.262;2023-06-14T12:02:52;94326.94;;;24.84;85.33
12077;BME280;12420;42.676;23.262;2023-06-14T12:05:21;94298.63;;;24.84;88.79
12077;BME280;12420;42.676;23.262;2023-06-14T12:07:48;94315.16;;;25.03;83.82
12077;BME280;12420;42.676;23.262;2023-06-14T12:10:17;94306.22;;;25.23;83.40
12077;BME280;12420;42.676;23.262;2023-06-14T12:12:44;94304.66;;;25.20;84.78
12077;BME280;12420;42.676;23.262;2023-06-14T12:15:10;94262.50;;;25.12;80.19
12077;BME280;12420;42.676;23.262;2023-06-14T12:17:38;94271.91;;;25.46;81.73
12077;BME280;12420;42.676;23.262;2023-06-14T12:20:09;94286.19;;;25.48;78.59
12077;BME280;12420;42.676;23.262;2023-06-14T12:22:46;94285.00;;;25.69;79.50
12077;BME280;12420;42.676;23.262;2023-06-14T12:25:26;94278.22;;;25.90;74.29
12077;BME280;12420;42.676;23.262;2023-06-14T12:27:53;94298.22;;;25.94;80.71
12077;BME280;12420;42.676;23.262;2023-06-14T12:30:20;94297.31;;;25.90;80.16
12077;BME280;12420;42.676;23.262;2023-06-14T12:32:47;94298.34;;;26.28;77.55
12077;BME280;12420;42.676;23.262;2023-06-14T12:35:16;94274.50;;;26.51;78.29
12077;BME280;12420;42.676;23.262;2023-06-14T12:37:43;94286.91;;;26.76;77.96
12077;BME280;12420;42.676;23.262;2023-06-14T12:40:11;94259.47;;;26.65;80.18
12077;BME280;12420;42.676;23.262;2023-06-14T12:42:40;94270.66;;;26.45;76.16
12077;BME280;12420;42.676;23.262;2023-06-14T12:45:07;94263.38;;;26.73;77.91
12077;BME280;12420;42.676;23.262;2023-06-14T12:47:34;94258.03;;;26.81;74.78
12077;BME280;12420;42.676;23.262;2023-06-14T12:50:01;94268.41;;;26.75;70.74